Time;durP1;ratioP1;P1;durP2;ratioP2;P2;SDS_P1;SDS_P2;PMS_P1;PMS_P2;Temp;Humidity;BMP_temperature;BMP_pressure;BME280_temperature;BME280_humidity;BME280_pressure;Samples;Min_cycle;Max_cycle;Signal;HPM_P1;HPM_P2
2023/03/24 00:01:14;;;;;;;4.38;2.20;;;11.30;99.90;;;;;;5091825;28;20184;-77
2023/03/24 00:03:40;;;;;;;5.95;2.10;;;11.20;99.90;;;;;;5065966;28;20052;-77
2023/03/24 00:06:08;;;;;;;4.18;2.38;;;11.20;99.90;;;;;;5081616;28;20101;-77
2023/03/24 00:08:36;;;;;;;4.40;2.63;;;11.20;99.90;;;;;;5083753;28;20488;-76
2023/03/24 00:11:05;;;;;;;4.47;2.50;;;11.20;99.90;;;;;;5063581;28;20052;-78
2023/03/24 00:13:36;;;;;;;3.80;2.20;;;11.20;99.90;;;;;;5078442;28;20052;-75
2023/03/24 00:16:07;;;;;;;5.63;2.63;;;11.10;99.90;;;;;;5079962;28;20044;-79
2023/03/24 00:18:33;;;;;;;3.92;2.38;;;11.10;99.90;;;;;;5085621;28;20039;-77
2023/03/24 00:20:59;;;;;;;5.45;2.17;;;11.10;99.90;;;;;;5087041;28;20439;-76
2023/03/24 00:23:26;;;;;;;6.25;2.60;;;11.20;99.90;;;;;;5075713;28;20500;-76
2023/03/24 00:26:03;;;;;;;5.15;2.10;;;11.10;99.90;;;;;;5086382;28;20057;-78
2023/03/24 00:28:35;;;;;;;5.22;2.47;;;11.10;99.90;;;;;;5079775;28;20111;-75
2023/03/24 00:31:02;;;;;;;3.97;2.22;;;11.10;99.90;;;;;;5078348;28;20045;-76
2023/03/24 00:33:33;;;;;;;5.65;2.53;;;11.10;99.90;;;;;;5077729;28;20054;-78
2023/03/24 00:36:01;;;;;;;4.50;2.25;;;11.10;99.90;;;;;;5093046;28;20123;-76
2023/03/24 00:38:27;;;;;;;3.72;2.17;;;11.10;99.90;;;;;;5081255;28;20076;-77
2023/03/24 00:40:53;;;;;;;5.03;2.08;;;11.10;99.90;;;;;;5085991;28;20416;-78
2023/03/24 00:43:19;;;;;;;5.75;2.50;;;11.00;99.90;;;;;;5091398;28;20051;-80
2023/03/24 00:45:45;;;;;;;6.53;2.75;;;11.00;99.90;;;;;;5090269;28;20045;-76
2023/03/24 00:48:19;;;;;;;4.35;2.40;;;10.90;99.90;;;;;;5074467;28;20036;-77
2023/03/24 00:50:46;;;;;;;3.75;2.10;;;10.90;99.90;;;;;;5076996;28;20044;-77
2023/03/24 00:53:14;;;;;;;4.85;2.40;;;10.90;99.90;;;;;;5090521;28;20036;-77
2023/03/24 00:55:46;;;;;;;5.15;2.97;;;10.90;99.90;;;;;;5093792;28;20087;-78
2023/03/24 00:58:16;;;;;;;5.25;2.33;;;10.90;99.90;;;;;;5086460;28;20040;-75
2023/03/24 01:00:44;;;;;;;5.07;2.17;;;10.90;99.90;;;;;;5089338;28;20048;-79
2023/03/24 01:03:09;;;;;;;5.13;2.53;;;10.90;99.90;;;;;;5092640;28;20040;-77
2023/03/24 01:05:36;;;;;;;3.65;2.35;;;10.90;99.90;;;;;;5086280;28;20045;-77
2023/03/24 01:08:03;;;;;;;5.15;2.88;;;10.90;99.90;;;;;;5085639;28;20050;-76
2023/03/24 01:10:32;;;;;;;3.97;2.35;;;11.00;99.90;;;;;;5082889;28;20043;-77
2023/03/24 01:12:59;;;;;;;3.75;2.03;;;11.00;99.90;;;;;;5085709;28;20055;-80
2023/03/24 01:15:29;;;;;;;4.10;2.47;;;11.00;99.90;;;;;;5074400;28;20055;-77
2023/03/24 01:17:55;;;;;;;3.72;2.25;;;11.00;99.90;;;;;;5084622;28;20169;-76
2023/03/24 01:20:22;;;;;;;4.82;2.20;;;11.00;99.90;;;;;;5085022;28;20400;-76
2023/03/24 01:22:49;;;;;;;3.72;2.25;;;11.00;99.90;;;;;;5087298;28;20119;-76
2023/03/24 01:25:18;;;;;;;6.43;2.38;;;11.00;99.90;;;;;;5082997;28;20083;-77
2023/03/24 01:27:46;;;;;;;4.35;2.55;;;11.10;99.90;;;;;;5081840;28;20044;-77
2023/03/24 01:30:15;;;;;;;4.38;2.10;;;11.00;99.90;;;;;;5075697;28;20067;-75
2023/03/24 01:32:41;;;;;;;5.13;2.58;;;11.00;99.90;;;;;;5081213;28;20180;-74
2023/03/24 01:35:07;;;;;;;4.22;2.60;;;11.10;99.90;;;;;;5091039;28;20064;-77
2023/03/24 01:37:33;;;;;;;4.30;2.60;;;11.10;99.90;;;;;;5078557;28;20094;-77
2023/03/24 01:39:59;;;;;;;3.85;2.50;;;11.10;99.90;;;;;;5089876;28;20531;-76
2023/03/24 01:42:26;;;;;;;4.13;2.45;;;11.10;99.90;;;;;;5088226;28;20080;-76
2023/03/24 01:45:22;;;;;;;4.88;2.45;;;11.20;99.90;;;;;;5087816;28;20051;-77
2023/03/24 01:47:48;;;;;;;4.40;2.40;;;11.20;99.90;;;;;;5078346;28;20047;-79
2023/03/24 01:50:14;;;;;;;3.95;2.08;;;11.20;99.90;;;;;;5087449;28;20165;-75
2023/03/24 01:52:41;;;;;;;4.13;2.88;;;11.10;99.90;;;;;;5084335;28;20036;-79
2023/03/24 01:55:17;;;;;;;3.33;2.30;;;11.10;99.90;;;;;;5088931;28;20055;-82
2023/03/24 01:57:48;;;;;;;5.63;2.10;;;11.10;99.90;;;;;;5071451;28;20053;-76
2023/03/24 02:00:17;;;;;;;4.47;2.50;;;11.10;99.90;;;;;;5074383;28;20100;-77
2023/03/24 02:02:53;;;;;;;4.28;2.58;;;11.20;99.90;;;;;;5073113;28;20044;-77
2023/03/24 02:05:24;;;;;;;5.22;2.90;;;11.20;99.90;;;;;;5075733;28;20048;-79
2023/03/24 02:08:15;;;;;;;4.55;2.50;;;11.20;99.90;;;;;;5085582;28;20056;-76
2023/03/24 02:10:42;;;;;;;6.63;2.92;;;11.20;99.90;;;;;;5060658;28;20079;-75
2023/03/24 02:13:09;;;;;;;3.85;2.10;;;11.20;99.90;;;;;;5085202;28;20051;-75
2023/03/24 02:16:07;;;;;;;5.85;2.90;;;11.20;99.90;;;;;;5075816;28;20048;-78
2023/03/24 02:18:43;;;;;;;4.60;2.92;;;11.30;99.90;;;;;;5075920;28;20395;-76
2023/03/24 02:21:25;;;;;;;;;;;11.40;99.90;;;;;;5091788;28;20056;-77
2023/03/24 02:24:31;;;;;;;4.43;3.05;;;11.40;99.90;;;;;;5076658;28;19967;-78
2023/03/24 02:27:18;;;;;;;3.95;2.60;;;11.30;99.90;;;;;;5080678;28;20044;-76
2023/03/24 02:30:08;;;;;;;5.55;3.30;;;11.40;99.90;;;;;;5087816;28;20055;-74
2023/03/24 02:33:05;;;;;;;6.72;3.53;;;11.40;99.90;;;;;;5073765;28;20044;-75
2023/03/24 02:36:04;;;;;;;3.88;3.05;;;11.40;99.90;;;;;;5072562;28;20135;-74
2023/03/24 02:38:48;;;;;;;4.13;2.78;;;11.40;99.90;;;;;;5064516;28;20549;-75
2023/03/24 02:41:14;;;;;;;4.22;3.10;;;11.40;99.90;;;;;;5071937;28;20137;-75
2023/03/24 02:44:09;;;;;;;4.18;3.00;;;11.40;99.90;;;;;;5090561;28;20398;-75
2023/03/24 02:46:37;;;;;;;5.22;3.65;;;11.50;99.90;;;;;;5091286;28;20605;-74
2023/03/24 02:49:19;;;;;;;5.60;3.05;;;11.50;99.90;;;;;;5079560;28;20055;-77
2023/03/24 02:51:57;;;;;;;4.43;3.08;;;11.50;99.90;;;;;;5077945;28;20112;-73
2023/03/24 02:55:00;;;;;;;4.40;3.22;;;11.50;99.90;;;;;;5068339;28;20701;-74
2023/03/24 02:57:31;;;;;;;5.38;3.47;;;11.50;99.90;;;;;;5074032;28;20036;-75
2023/03/24 03:00:12;;;;;;;5.40;3.10;;;11.50;99.90;;;;;;5072874;28;20052;-76
2023/03/24 03:02:47;;;;;;;4.45;3.17;;;11.40;99.90;;;;;;5070918;28;20087;-74
2023/03/24 03:05:21;;;;;;;5.82;2.80;;;11.40;99.90;;;;;;5086401;28;20055;-72
2023/03/24 03:07:48;;;;;;;4.75;2.75;;;11.50;99.90;;;;;;5080473;28;20102;-75
2023/03/24 03:10:21;;;;;;;4.60;3.15;;;11.50;99.90;;;;;;5069811;28;20052;-77
2023/03/24 03:12:51;;;;;;;6.85;3.25;;;11.50;99.90;;;;;;5085530;28;20044;-76
2023/03/24 03:15:27;;;;;;;5.10;3.20;;;11.50;99.90;;;;;;5082094;28;20053;-75
2023/03/24 03:18:06;;;;;;;5.18;3.15;;;11.50;99.90;;;;;;5056101;28;20444;-74
2023/03/24 03:20:49;;;;;;;4.55;3.33;;;11.50;99.90;;;;;;5078806;28;20121;-75
2023/03/24 03:23:18;;;;;;;3.92;2.72;;;11.50;99.90;;;;;;5065285;28;20058;-75
2023/03/24 03:25:49;;;;;;;3.65;2.92;;;11.50;99.90;;;;;;5077602;28;20052;-74
2023/03/24 03:28:20;;;;;;;4.38;3.22;;;11.50;99.90;;;;;;5073614;28;20389;-76
2023/03/24 03:30:53;;;;;;;3.78;2.90;;;11.60;99.90;;;;;;5081262;28;20454;-75
2023/03/24 03:33:27;;;;;;;4.10;3.00;;;11.60;99.90;;;;;;5090786;28;20073;-75
2023/03/24 03:36:01;;;;;;;4.35;2.92;;;11.60;99.90;;;;;;5090480;28;20047;-74
2023/03/24 03:38:44;;;;;;;4.05;2.65;;;11.60;99.90;;;;;;5078706;28;20059;-73
2023/03/24 03:41:10;;;;;;;4.75;3.20;;;11.60;99.90;;;;;;5068802;28;20048;-73
2023/03/24 03:43:36;;;;;;;4.15;2.70;;;11.60;99.90;;;;;;5081943;28;20076;-75
2023/03/24 03:46:05;;;;;;;3.28;2.67;;;11.60;99.90;;;;;;5071770;28;20136;-76
2023/03/24 03:48:32;;;;;;;4.25;2.92;;;11.60;99.90;;;;;;5085803;28;20122;-74
2023/03/24 03:50:58;;;;;;;3.55;2.85;;;11.60;99.90;;;;;;5073930;28;20131;-72
2023/03/24 03:53:44;;;;;;;4.15;2.92;;;11.60;99.90;;;;;;5066829;28;20546;-74
2023/03/24 03:56:10;;;;;;;4.00;2.65;;;11.60;99.90;;;;;;5070270;28;20172;-73
2023/03/24 03:58:36;;;;;;;4.40;3.17;;;11.60;99.90;;;;;;5089958;28;20544;-74
2023/03/24 04:01:05;;;;;;;3.65;3.13;;;11.70;99.90;;;;;;5072652;28;20143;-74
2023/03/24 04:03:46;;;;;;;3.22;2.67;;;11.70;99.90;;;;;;5078853;28;20196;-74
2023/03/24 04:06:43;;;;;;;3.00;2.30;;;11.70;99.90;;;;;;5073752;28;20040;-72
2023/03/24 04:09:35;;;;;;;5.13;2.00;;;11.80;99.90;;;;;;5091314;28;20066;-75
2023/03/24 04:12:19;;;;;;;2.97;2.20;;;11.80;99.90;;;;;;5077666;28;20040;-72
2023/03/24 04:15:23;;;;;;;2.35;1.48;;;11.70;99.90;;;;;;5090974;28;20442;-74
2023/03/24 04:18:04;;;;;;;2.53;1.55;;;11.50;99.90;;;;;;5027685;28;20067;-72
2023/03/24 04:20:37;;;;;;;3.92;1.50;;;11.30;99.90;;;;;;5083099;28;20040;-73
2023/03/24 04:23:25;;;;;;;1.67;1.20;;;11.20;99.90;;;;;;5085232;28;20050;-73
2023/03/24 04:25:57;;;;;;;3.38;1.20;;;11.10;99.90;;;;;;5093479;28;20051;-72
2023/03/24 04:28:38;;;;;;;5.78;1.50;;;11.00;99.90;;;;;;5087258;28;20131;-75
2023/03/24 04:31:26;;;;;;;2.58;1.52;;;10.90;99.90;;;;;;5080812;28;20036;-74
2023/03/24 04:33:57;;;;;;;4.18;1.73;;;10.80;99.90;;;;;;5079345;28;20050;-76
2023/03/24 04:36:49;;;;;;;3.70;1.60;;;10.70;99.90;;;;;;5080857;28;20464;-73
2023/03/24 04:39:24;;;;;;;5.25;1.70;;;10.60;99.90;;;;;;5062803;28;20489;-73
2023/03/24 04:41:51;;;;;;;2.95;1.63;;;10.60;99.90;;;;;;5056588;28;20405;-74
2023/03/24 04:44:20;;;;;;;3.13;1.45;;;10.60;99.90;;;;;;5088354;28;20048;-73
2023/03/24 04:46:49;;;;;;;4.22;1.50;;;10.50;99.90;;;;;;5081325;28;20435;-74
2023/03/24 04:49:15;;;;;;;2.75;1.30;;;10.50;99.90;;;;;;5061458;28;20388;-76
2023/03/24 04:51:42;;;;;;;6.30;1.95;;;10.50;99.90;;;;;;5085936;28;20044;-73
2023/03/24 04:54:08;;;;;;;4.40;1.70;;;10.40;99.90;;;;;;5092406;28;20044;-74
2023/03/24 04:56:46;;;;;;;3.05;1.05;;;10.30;99.90;;;;;;5091557;28;20051;-73
2023/03/24 04:59:13;;;;;;;3.25;1.55;;;10.30;99.90;;;;;;5075409;28;20045;-73
2023/03/24 05:01:40;;;;;;;3.75;1.42;;;10.20;99.90;;;;;;5090347;28;20043;-79
2023/03/24 05:04:06;;;;;;;3.95;1.60;;;10.20;99.90;;;;;;5082746;28;20047;-75
2023/03/24 05:06:32;;;;;;;1.90;1.10;;;10.20;99.90;;;;;;5059308;28;20157;-74
2023/03/24 05:08:58;;;;;;;2.83;1.40;;;10.10;99.90;;;;;;5067024;28;20119;-73
2023/03/24 05:11:26;;;;;;;2.42;1.30;;;10.00;99.90;;;;;;5093646;28;20503;-76
2023/03/24 05:13:53;;;;;;;4.57;1.30;;;10.00;99.90;;;;;;5095133;28;20063;-77
2023/03/24 05:16:19;;;;;;;2.13;1.20;;;10.00;99.90;;;;;;5077293;28;20097;-76
2023/03/24 05:18:45;;;;;;;3.25;1.63;;;9.90;99.90;;;;;;5077329;28;20050;-76
2023/03/24 05:21:10;;;;;;;5.03;1.30;;;9.90;99.90;;;;;;5094766;28;20135;-77
2023/03/24 05:23:36;;;;;;;4.20;1.63;;;9.90;99.90;;;;;;5095342;28;20130;-75
2023/03/24 05:26:03;;;;;;;4.65;1.35;;;9.90;99.90;;;;;;5076803;28;20533;-77
2023/03/24 05:28:29;;;;;;;4.47;1.77;;;9.90;99.90;;;;;;5076626;28;20530;-77
2023/03/24 05:30:54;;;;;;;5.65;1.48;;;9.90;99.90;;;;;;5076745;28;20048;-76
2023/03/24 05:33:20;;;;;;;7.57;1.83;;;9.90;99.90;;;;;;5076695;28;20048;-76
2023/03/24 05:35:46;;;;;;;4.20;1.52;;;10.00;99.90;;;;;;5094330;28;20044;-76
2023/03/24 05:38:12;;;;;;;5.07;1.65;;;9.90;99.90;;;;;;5077061;28;20420;-76
2023/03/24 05:40:38;;;;;;;5.85;1.73;;;9.90;99.90;;;;;;5060081;28;20048;-76
2023/03/24 05:43:04;;;;;;;4.97;1.98;;;10.00;99.90;;;;;;5094151;28;20169;-76
2023/03/24 05:45:30;;;;;;;5.55;1.85;;;9.90;99.90;;;;;;5093916;28;20055;-77
2023/03/24 05:47:56;;;;;;;5.05;1.67;;;9.90;99.90;;;;;;5094214;28;20040;-76
2023/03/24 05:50:24;;;;;;;5.03;2.03;;;9.90;99.90;;;;;;5094144;28;20151;-76
2023/03/24 05:52:51;;;;;;;4.78;1.90;;;9.90;99.90;;;;;;5077340;28;20052;-76
2023/03/24 05:55:18;;;;;;;4.80;1.83;;;9.90;99.90;;;;;;5094069;28;20058;-76
2023/03/24 05:57:44;;;;;;;3.83;1.67;;;9.90;99.90;;;;;;5076140;28;20073;-76
2023/03/24 06:00:15;;;;;;;3.72;1.40;;;9.90;99.90;;;;;;5094322;28;20089;-76
2023/03/24 06:02:42;;;;;;;6.28;1.85;;;9.80;99.90;;;;;;5076497;28;20206;-77
2023/03/24 06:05:08;;;;;;;5.50;1.33;;;9.80;99.90;;;;;;5094467;28;20048;-75
2023/03/24 06:07:34;;;;;;;6.05;1.83;;;9.80;99.90;;;;;;5092560;28;20503;-76
2023/03/24 06:10:01;;;;;;;4.80;1.55;;;9.70;99.90;;;;;;5075725;28;20063;-75
2023/03/24 06:12:29;;;;;;;5.60;1.35;;;9.70;99.90;;;;;;5075729;28;20063;-76
2023/03/24 06:14:55;;;;;;;5.30;1.65;;;9.70;99.90;;;;;;5094383;28;20048;-77
2023/03/24 06:17:23;;;;;;;3.58;1.23;;;9.70;99.90;;;;;;5075772;28;20362;-78
2023/03/24 06:19:49;;;;;;;4.63;1.80;;;9.70;99.90;;;;;;5076114;28;20052;-77
2023/03/24 06:22:19;;;;;;;5.00;1.42;;;9.70;99.90;;;;;;5093850;28;20048;-77
2023/03/24 06:24:45;;;;;;;4.53;1.77;;;9.70;99.90;;;;;;5075647;28;20044;-75
2023/03/24 06:27:13;;;;;;;2.90;1.23;;;9.70;99.90;;;;;;5076346;28;20052;-76
2023/03/24 06:29:42;;;;;;;4.88;1.38;;;9.70;99.90;;;;;;5093664;28;20044;-76
2023/03/24 06:32:08;;;;;;;4.60;1.50;;;9.70;99.90;;;;;;5075613;28;20048;-75
2023/03/24 06:34:34;;;;;;;6.10;1.60;;;9.70;99.90;;;;;;5093614;28;20473;-76
2023/03/24 06:37:00;;;;;;;6.60;1.73;;;9.80;99.90;;;;;;5075594;28;20051;-76
2023/03/24 06:39:26;;;;;;;4.93;1.27;;;9.80;99.90;;;;;;5076377;28;20048;-76
2023/03/24 06:41:52;;;;;;;3.50;1.38;;;9.80;99.90;;;;;;5093548;28;20495;-75
2023/03/24 06:44:17;;;;;;;4.47;1.60;;;9.80;99.90;;;;;;5075681;28;20048;-76
2023/03/24 06:46:44;;;;;;;3.90;1.30;;;9.80;99.90;;;;;;5094236;28;20040;-77
2023/03/24 06:49:10;;;;;;;6.35;1.77;;;9.90;99.90;;;;;;5093382;28;20134;-77
2023/03/24 06:51:36;;;;;;;5.45;1.63;;;9.90;99.90;;;;;;5075570;28;20109;-75
2023/03/24 06:54:02;;;;;;;4.75;1.38;;;9.90;99.90;;;;;;5094202;28;20044;-75
2023/03/24 06:56:29;;;;;;;3.80;1.33;;;10.00;99.90;;;;;;5093823;28;20056;-75
2023/03/24 06:58:55;;;;;;;3.97;1.50;;;10.00;99.90;;;;;;5093859;28;20131;-76
2023/03/24 07:01:21;;;;;;;7.05;1.92;;;10.00;99.90;;;;;;5094033;28;20051;-76
2023/03/24 07:03:47;;;;;;;5.55;1.73;;;10.00;99.90;;;;;;5093574;28;20051;-76
2023/03/24 07:06:13;;;;;;;5.15;1.85;;;10.00;99.90;;;;;;5075481;28;20044;-75
2023/03/24 07:08:40;;;;;;;4.72;1.60;;;10.10;99.90;;;;;;5094315;28;20357;-77
2023/03/24 07:11:08;;;;;;;7.10;1.65;;;10.20;99.90;;;;;;5093168;28;20113;-76
2023/03/24 07:13:34;;;;;;;5.38;2.25;;;10.20;99.90;;;;;;5093196;28;20048;-77
2023/03/24 07:16:00;;;;;;;4.45;1.73;;;10.20;99.90;;;;;;5093079;28;20135;-69
2023/03/24 07:18:25;;;;;;;3.47;1.45;;;10.20;99.90;;;;;;5094601;28;20040;-68
2023/03/24 07:20:51;;;;;;;5.68;1.90;;;10.20;99.90;;;;;;5097161;28;20048;-69
2023/03/24 07:23:17;;;;;;;5.38;1.70;;;10.20;99.90;;;;;;5097575;28;20101;-71
2023/03/24 07:25:43;;;;;;;7.35;2.17;;;10.20;99.90;;;;;;5097585;28;20430;-69
2023/03/24 07:28:09;;;;;;;7.30;1.98;;;10.30;99.90;;;;;;5079105;28;20051;-69
2023/03/24 07:30:35;;;;;;;6.60;1.75;;;10.20;99.90;;;;;;5096982;28;20048;-69
2023/03/24 07:33:03;;;;;;;5.80;1.92;;;10.30;99.90;;;;;;5096920;28;20048;-69
2023/03/24 07:35:29;;;;;;;7.47;1.92;;;10.30;99.90;;;;;;5078578;28;20096;-68
2023/03/24 07:37:58;;;;;;;4.00;1.60;;;10.30;99.90;;;;;;5078788;28;20105;-70
2023/03/24 07:40:24;;;;;;;5.47;1.50;;;10.30;99.90;;;;;;5096812;28;20162;-69
2023/03/24 07:42:50;;;;;;;6.22;1.90;;;10.30;99.90;;;;;;5096338;28;20541;-69
2023/03/24 07:45:16;;;;;;;5.90;1.73;;;10.40;99.90;;;;;;5078512;28;20127;-68
2023/03/24 07:47:44;;;;;;;4.72;1.73;;;10.40;99.90;;;;;;5096569;28;20131;-70
2023/03/24 07:50:10;;;;;;;8.95;2.28;;;10.30;99.90;;;;;;5097050;28;20134;-69
2023/03/24 07:52:38;;;;;;;6.97;2.25;;;10.30;99.90;;;;;;5097383;28;20401;-69
2023/03/24 07:55:10;;;;;;;6.28;2.08;;;10.40;99.90;;;;;;5096554;28;20077;-68
2023/03/24 07:57:37;;;;;;;6.85;2.20;;;10.40;99.90;;;;;;5096129;28;20492;-69
2023/03/24 08:00:14;;;;;;;6.68;2.45;;;10.40;99.90;;;;;;5078509;28;20074;-69
2023/03/24 08:02:40;;;;;;;7.47;2.33;;;10.40;99.90;;;;;;5096990;28;20043;-69
2023/03/24 08:05:09;;;;;;;9.88;1.73;;;10.40;99.90;;;;;;5096826;28;20411;-69
2023/03/24 08:07:35;;;;;;;9.50;2.63;;;10.40;99.90;;;;;;5096184;28;20530;-70
2023/03/24 08:10:01;;;;;;;7.25;2.28;;;10.40;99.90;;;;;;5078285;28;20117;-69
2023/03/24 08:12:27;;;;;;;8.00;2.28;;;10.40;99.90;;;;;;5095777;28;20484;-68
2023/03/24 08:14:52;;;;;;;13.23;2.50;;;10.40;99.90;;;;;;5096418;28;20040;-68
2023/03/24 08:17:18;;;;;;;11.10;2.00;;;10.50;99.90;;;;;;5096006;28;20040;-69
2023/03/24 08:19:46;;;;;;;7.68;2.67;;;10.50;99.90;;;;;;5061494;28;20048;-72
2023/03/24 08:22:12;;;;;;;9.45;2.05;;;10.50;99.90;;;;;;5095882;28;20051;-77
2023/03/24 08:24:37;;;;;;;5.25;1.88;;;10.50;99.90;;;;;;5078027;28;20044;-76
2023/03/24 08:27:06;;;;;;;9.52;2.22;;;10.60;99.90;;;;;;5096098;28;20047;-79
2023/03/24 08:29:35;;;;;;;8.90;2.20;;;10.60;99.90;;;;;;5095188;28;20131;-76
2023/03/24 08:32:01;;;;;;;7.03;2.30;;;10.70;99.90;;;;;;5095753;28;20102;-78
2023/03/24 08:34:27;;;;;;;6.80;1.92;;;10.80;99.90;;;;;;5077609;28;20048;-79
2023/03/24 08:36:52;;;;;;;9.57;2.10;;;10.80;99.90;;;;;;5095623;28;20044;-78
2023/03/24 08:39:19;;;;;;;6.10;1.90;;;10.80;99.90;;;;;;5077907;28;20121;-77
2023/03/24 08:41:45;;;;;;;7.88;2.38;;;10.80;99.90;;;;;;5096431;28;20036;-79
2023/03/24 08:44:11;;;;;;;8.13;2.10;;;10.90;99.90;;;;;;5095555;28;20051;-78
2023/03/24 08:46:37;;;;;;;8.68;2.65;;;10.90;99.90;;;;;;5095514;28;20048;-78
2023/03/24 08:49:03;;;;;;;6.45;2.25;;;10.90;99.90;;;;;;5095556;28;20122;-78
2023/03/24 08:51:30;;;;;;;14.65;2.35;;;10.90;99.90;;;;;;5095862;28;20512;-79
2023/03/24 08:53:55;;;;;;;10.45;2.30;;;10.90;99.90;;;;;;5077605;28;20079;-80
2023/03/24 08:56:21;;;;;;;8.50;2.25;;;10.80;99.90;;;;;;5095374;28;20083;-78
2023/03/24 08:58:50;;;;;;;10.68;2.38;;;10.80;99.90;;;;;;5095215;28;20082;-79
2023/03/24 09:01:16;;;;;;;9.63;3.05;;;11.00;99.90;;;;;;5095233;28;20090;-80
2023/03/24 09:03:43;;;;;;;6.50;1.85;;;11.20;99.90;;;;;;5095287;28;20085;-81
2023/03/24 09:06:09;;;;;;;7.88;2.08;;;11.40;99.90;;;;;;5077218;28;20055;-79
2023/03/24 09:08:35;;;;;;;5.70;1.88;;;11.60;99.90;;;;;;5096013;28;20060;-79
2023/03/24 09:11:01;;;;;;;5.05;1.70;;;11.80;99.90;;;;;;5077338;28;20105;-78
2023/03/24 09:13:26;;;;;;;7.20;2.40;;;11.90;99.90;;;;;;5094830;28;20502;-78
2023/03/24 09:15:56;;;;;;;6.43;1.40;;;12.00;99.90;;;;;;5077427;28;20051;-78
2023/03/24 09:18:22;;;;;;;10.52;1.83;;;11.90;99.90;;;;;;5096000;28;20040;-80
2023/03/24 09:20:48;;;;;;;7.22;1.50;;;11.90;99.90;;;;;;5061972;28;20044;-81
2023/03/24 09:23:15;;;;;;;6.85;2.08;;;12.00;99.90;;;;;;5094971;28;20051;-79
2023/03/24 09:25:40;;;;;;;8.00;2.05;;;12.20;99.90;;;;;;5094876;28;20050;-80
2023/03/24 09:28:07;;;;;;;5.60;1.77;;;12.30;99.90;;;;;;5094386;28;20044;-80
2023/03/24 09:30:33;;;;;;;5.05;2.17;;;12.40;99.90;;;;;;5095225;28;20059;-76
2023/03/24 09:32:59;;;;;;;11.27;2.33;;;12.30;99.90;;;;;;5076758;28;20139;-76
2023/03/24 09:35:26;;;;;;;9.10;2.15;;;12.10;99.90;;;;;;5094599;28;20047;-76
2023/03/24 09:37:52;;;;;;;7.22;1.83;;;11.80;99.90;;;;;;5076412;28;20056;-76
2023/03/24 09:40:29;;;;;;;6.53;1.70;;;11.70;99.90;;;;;;5077238;28;20363;-77
2023/03/24 09:43:12;;;;;;;5.00;1.80;;;11.60;99.90;;;;;;5077088;28;20385;-80
2023/03/24 09:45:51;;;;;;;7.22;1.98;;;11.50;99.90;;;;;;5094875;28;20105;-80
2023/03/24 09:48:25;;;;;;;6.15;2.00;;;11.70;99.90;;;;;;5094131;28;20056;-74
2023/03/24 09:51:09;;;;;;;5.72;2.10;;;11.90;99.90;;;;;;5094107;28;20524;-74
2023/03/24 09:53:49;;;;;;;5.07;1.65;;;12.10;99.90;;;;;;5076539;28;20354;-75
2023/03/24 09:56:21;;;;;;;5.07;1.58;;;12.30;99.90;;;;;;5094535;28;20048;-77
2023/03/24 09:59:01;;;;;;;5.50;2.00;;;12.40;99.90;;;;;;5075811;28;20047;-74
2023/03/24 10:01:26;;;;;;;4.65;2.05;;;12.40;99.90;;;;;;5075909;28;20048;-76
2023/03/24 10:03:57;;;;;;;7.00;2.15;;;12.30;99.90;;;;;;5076465;28;20052;-75
2023/03/24 10:06:25;;;;;;;4.75;1.60;;;12.50;99.90;;;;;;5093805;28;20039;-74
2023/03/24 10:09:23;;;;;;;8.27;1.95;;;12.70;99.90;;;;;;5093468;28;20059;-76
2023/03/24 10:12:10;;;;;;;6.68;1.77;;;12.90;99.90;;;;;;5093112;28;20052;-74
2023/03/24 10:14:48;;;;;;;8.35;2.10;;;12.90;99.90;;;;;;5094308;28;20048;-75
2023/03/24 10:17:17;;;;;;;7.60;1.95;;;12.70;99.90;;;;;;5094354;28;20048;-77
2023/03/24 10:20:18;;;;;;;5.40;1.48;;;12.40;99.90;;;;;;5093662;28;20457;-74
2023/03/24 10:23:06;;;;;;;4.95;1.55;;;12.30;99.90;;;;;;5076308;28;20056;-75
2023/03/24 10:25:36;;;;;;;9.63;2.08;;;12.30;99.90;;;;;;5076003;28;20047;-75
2023/03/24 10:28:23;;;;;;;6.60;1.90;;;12.10;99.90;;;;;;5093563;28;20048;-74
2023/03/24 10:30:52;;;;;;;4.90;1.58;;;12.00;99.90;;;;;;5075960;28;20044;-76
2023/03/24 10:33:18;;;;;;;5.40;1.63;;;12.10;99.90;;;;;;5093475;28;20429;-75
2023/03/24 10:36:01;;;;;;;5.25;1.40;;;12.20;99.90;;;;;;5076360;28;20051;-76
2023/03/24 10:38:27;;;;;;;6.88;2.17;;;12.30;99.90;;;;;;5093834;28;20079;-76
2023/03/24 10:40:54;;;;;;;5.25;1.35;;;12.50;99.90;;;;;;5075259;28;20090;-75
2023/03/24 10:43:22;;;;;;;6.10;1.45;;;12.60;99.90;;;;;;5093302;28;20043;-76
2023/03/24 10:45:51;;;;;;;7.05;1.70;;;12.50;99.90;;;;;;5093588;28;20377;-74
2023/03/24 10:48:44;;;;;;;10.13;2.50;;;12.30;99.90;;;;;;5075378;28;20115;-76
2023/03/24 10:51:20;;;;;;;7.05;1.95;;;12.20;99.90;;;;;;5089655;28;20063;-75
2023/03/24 10:53:47;;;;;;;6.43;2.10;;;12.20;99.90;;;;;;5092376;28;20465;-73
2023/03/24 10:56:38;;;;;;;6.28;1.67;;;12.40;99.90;;;;;;5092786;28;20051;-74
2023/03/24 10:59:24;;;;;;;4.35;1.35;;;12.80;99.90;;;;;;5093556;28;20059;-75
2023/03/24 11:01:56;;;;;;;9.10;1.77;;;12.90;99.90;;;;;;5093688;28;20044;-74
2023/03/24 11:04:22;;;;;;;6.13;1.95;;;13.10;99.90;;;;;;5075698;28;20678;-75
2023/03/24 11:07:03;;;;;;;3.92;1.50;;;13.20;99.90;;;;;;5075067;28;20036;-75
2023/03/24 11:09:37;;;;;;;6.07;1.17;;;13.30;99.90;;;;;;5092983;28;20481;-74
2023/03/24 11:12:03;;;;;;;6.22;1.60;;;13.50;99.90;;;;;;5075426;28;20055;-76
2023/03/24 11:14:29;;;;;;;4.32;1.48;;;13.70;99.90;;;;;;5075857;28;20047;-74
2023/03/24 11:17:15;;;;;;;4.05;1.38;;;13.80;99.90;;;;;;5093279;28;20131;-76
2023/03/24 11:19:59;;;;;;;7.85;1.50;;;13.90;99.90;;;;;;5092972;28;20125;-73
2023/03/24 11:22:25;;;;;;;4.68;1.65;;;13.90;99.90;;;;;;5093351;28;20087;-74
2023/03/24 11:24:55;;;;;;;5.82;1.48;;;13.90;99.90;;;;;;5074988;28;20084;-77
2023/03/24 11:27:21;;;;;;;5.20;1.30;;;13.90;99.90;;;;;;5074958;28;20062;-76
2023/03/24 11:29:52;;;;;;;4.43;1.38;;;13.80;99.90;;;;;;5075065;28;20130;-74
2023/03/24 11:32:25;;;;;;;5.18;1.60;;;13.60;99.90;;;;;;5092750;28;20098;-74
2023/03/24 11:35:02;;;;;;;6.10;1.50;;;13.20;99.90;;;;;;5093264;28;20040;-76
2023/03/24 11:37:32;;;;;;;4.82;1.48;;;12.90;99.90;;;;;;5093352;28;20048;-78
2023/03/24 11:40:15;;;;;;;5.93;1.17;;;12.90;99.90;;;;;;5093189;28;20055;-82
2023/03/24 11:43:02;;;;;;;3.55;1.30;;;13.10;99.90;;;;;;5092757;28;20052;-79
2023/03/24 11:45:40;;;;;;;5.60;1.33;;;13.40;99.90;;;;;;5092742;28;20123;-78
2023/03/24 11:48:34;;;;;;;4.15;1.42;;;13.50;99.90;;;;;;5074709;28;20047;-79
2023/03/24 11:51:01;;;;;;;4.88;1.30;;;13.60;99.90;;;;;;5075651;28;20098;-79
2023/03/24 11:53:49;;;;;;;5.25;1.50;;;13.70;99.90;;;;;;5092606;28;20055;-80
2023/03/24 11:56:55;;;;;;;6.68;1.52;;;13.90;99.90;;;;;;5092585;28;20544;-74
2023/03/24 11:59:36;;;;;;;4.30;1.70;;;14.00;99.90;;;;;;4990931;28;20050;-73
2023/03/24 12:03:04;;;;;;;4.50;1.33;;;14.20;99.90;;;;;;4990739;28;20046;-74
2023/03/24 12:05:43;;;;;;;4.75;1.45;;;14.40;99.90;;;;;;5008384;28;20090;-75
2023/03/24 12:08:30;;;;;;;5.40;1.52;;;14.30;99.90;;;;;;5096066;28;20052;-72
2023/03/24 12:11:15;;;;;;;3.80;1.20;;;14.40;99.90;;;;;;5096894;28;20388;-74
2023/03/24 12:13:48;;;;;;;5.30;2.03;;;14.00;99.90;;;;;;5078948;28;20174;-74
2023/03/24 12:16:31;;;;;;;5.78;1.67;;;13.60;99.90;;;;;;5078645;28;20044;-74
2023/03/24 12:19:43;;;;;;;3.55;1.40;;;13.50;99.90;;;;;;5096400;28;20055;-74
2023/03/24 12:22:37;;;;;;;3.92;1.38;;;13.50;99.90;;;;;;5077850;28;20051;-75
2023/03/24 12:25:21;;;;;;;3.63;1.70;;;13.70;99.90;;;;;;5096595;28;20388;-84
2023/03/24 12:28:05;;;;;;;6.72;1.60;;;13.80;99.90;;;;;;5095589;28;20079;-79
2023/03/24 12:30:42;;;;;;;4.20;1.30;;;13.90;99.90;;;;;;5095732;28;20062;-80
2023/03/24 12:33:14;;;;;;;5.00;1.50;;;14.10;99.90;;;;;;5095713;28;20050;-76
2023/03/24 12:35:52;;;;;;;4.63;1.23;;;14.30;99.90;;;;;;5095685;28;20412;-77
2023/03/24 12:38:21;;;;;;;4.85;1.20;;;14.70;99.90;;;;;;5095415;28;20051;-75
2023/03/24 12:41:05;;;;;;;4.30;1.20;;;14.80;99.90;;;;;;5095511;28;20153;-78
2023/03/24 12:43:58;;;;;;;4.90;1.20;;;14.90;99.90;;;;;;5095209;28;20052;-78
2023/03/24 12:46:51;;;;;;;3.17;1.13;;;14.90;99.90;;;;;;5077632;28;20048;-77
2023/03/24 12:49:35;;;;;;;4.22;1.15;;;14.70;99.90;;;;;;5095223;28;20086;-74
2023/03/24 12:52:04;;;;;;;5.60;1.08;;;14.80;99.90;;;;;;5077572;28;20105;-74
2023/03/24 12:54:51;;;;;;;4.68;1.35;;;15.10;99.90;;;;;;5094983;28;20056;-75
2023/03/24 12:57:20;;;;;;;4.32;1.20;;;15.20;99.90;;;;;;5077035;28;20044;-75
2023/03/24 13:00:00;;;;;;;5.68;1.15;;;15.10;99.90;;;;;;5095062;28;20048;-76
2023/03/24 13:02:37;;;;;;;5.90;1.42;;;15.20;99.90;;;;;;5077762;28;20105;-73
2023/03/24 13:05:13;;;;;;;5.60;1.40;;;15.40;99.90;;;;;;5077322;28;20047;-74
2023/03/24 13:07:42;;;;;;;7.72;1.65;;;15.70;99.90;;;;;;5095137;28;20094;-79
2023/03/24 13:10:19;;;;;;;6.00;1.40;;;15.70;99.90;;;;;;5095198;28;20477;-76
2023/03/24 13:12:59;;;;;;;5.32;1.52;;;15.50;99.90;;;;;;5094809;28;20392;-81
2023/03/24 13:15:48;;;;;;;4.95;1.30;;;15.30;99.90;;;;;;5093901;28;20551;-81